Data for 06/14/2005

Time Sea-Level Adjusted Pressure Absolute Pressure Temperature Relative Humidity Dew Point   
(mb) (inHg) (mb) (inHg) (C) (F) (%) (C) (F)
00:05 1020 30.12 849 25.07 9.6 49.3 69 4.3 39.8
00:10 1020 30.12 849 25.07 9.3 48.7 71 4.3 39.7
00:15 1020 30.12 849 25.07 9.5 49 67 3.8 38.8
00:20 1020 30.12 849 25.07 9.7 49.4 66 3.7 38.6
00:25 1020 30.12 849 25.07 9.8 49.6 67 4.1 39.3
00:30 1020 30.12 849 25.07 9.4 48.9 70 4.3 39.7
00:35 1020 30.12 849 25.07 9 48.3 71 4 39.2
00:40 1020 30.12 849 25.07 9 48.2 71 4 39.3
00:45 1020 30.12 849 25.07 9 48.1 70 3.9 39
00:50 1020 30.12 849 25.07 8.9 48 72 4.1 39.4
00:55 1020 30.12 849 25.07 8.7 47.6 71 3.7 38.7
01:00 1020 30.12 849 25.07 8.8 47.9 70 3.7 38.7
01:05 1020 30.12 849 25.07 9 48.2 68 3.3 38
01:10 1020 30.12 849 25.07 9.6 49.3 65 3.4 38.1
01:15 1020 30.12 849 25.07 9.5 49.1 66 3.6 38.4
01:20 1020 30.12 849 25.07 9.2 48.6 68 3.6 38.5
01:25 1020 30.12 849 25.07 8.9 47.9 69 3.6 38.4
01:30 1020 30.12 849 25.07 8.7 47.7 70 3.6 38.4
01:35 1020 30.12 849 25.07 8.7 47.6 70 3.5 38.3
01:40 1020 30.12 849 25.07 8.6 47.4 70 3.4 38.1
01:45 1020 30.12 849 25.07 8.7 47.6 69 3.3 38
01:50 1020 30.12 849 25.07 8.6 47.4 69 3.3 37.9
01:55 1020 30.12 849 25.07 8.6 47.5 69 3.2 37.8
02:00 1020 30.12 849 25.07 8.7 47.7 68 3.1 37.7
02:05 1020 30.12 849 25.07 8.8 47.9 67 3 37.4
02:10 1020 30.12 849 25.07 8.8 47.9 67 3.1 37.6
02:15 1020 30.12 849 25.07 8.7 47.6 68 3.2 37.7
02:20 1020 30.12 849 25.07 8.4 47.1 70 3.3 37.9
02:25 1020 30.12 849 25.07 8.1 46.5 72 3.3 38
02:30 1020 30.12 849 25.07 7.9 46.2 71 3.1 37.5
02:35 1020 30.12 849 25.07 8.1 46.5 72 3.3 37.9
02:40 1020 30.12 849 25.07 8 46.3 72 3.2 37.8
02:45 1020 30.12 849 25.07 7.9 46.3 72 3.3 37.9
02:50 1020 30.12 849 25.07 7.9 46.2 72 3.1 37.6
02:55 1020 30.12 849 25.07 8.1 46.6 71 3.1 37.6
03:00 1020 30.12 849 25.07 8.2 46.7 71 3.3 38
03:05 1020 30.12 849 25.07 8 46.3 73 3.4 38.1
03:10 1020 30.12 849 25.07 7.8 46.1 73 3.3 37.9
03:15 1020 30.12 849 25.07 7.8 46.1 72 3.2 37.8
03:20 1020 30.12 849 25.07 7.9 46.2 72 3.2 37.8
03:25 1020 30.12 849 25.07 8 46.5 71 3.1 37.6
03:30 1020 30.12 849 25.07 8.2 46.7 70 3.1 37.5
03:35 1020 30.12 849 25.07 8.3 46.9 70 3.1 37.6
03:40 1020 30.12 849 25.07 8.4 47.1 69 3.1 37.5
03:45 1020 30.12 849 25.07 8.5 47.2 68 3 37.3
03:50 1020 30.12 849 25.07 8.6 47.4 69 3.2 37.7
03:55 1020 30.12 849 25.07 8.7 47.6 68 3.1 37.6
04:00 1020 30.12 849 25.07 8.6 47.4 69 3.1 37.6
04:05 1020 30.12 849 25.07 8.2 46.7 70 3.2 37.7
04:10 1020 30.12 849 25.07 7.9 46.2 73 3.3 38
04:15 1020 30.12 849 25.07 7.6 45.7 73 3.2 37.7
04:20 1020 30.12 849 25.07 7.7 45.8 73 3.1 37.6
04:25 1020 30.12 849 25.07 7.5 45.6 73 3 37.4
04:30 1020 30.12 849 25.07 7.5 45.4 73 2.9 37.2
04:35 1020 30.12 849 25.07 7.6 45.7 72 3 37.3
04:40 1020 30.12 849 25.07 7.3 45.1 75 3.2 37.8
04:45 1020 30.12 849 25.07 6.9 44.4 76 3 37.4
04:50 1020 30.12 849 25.07 6.8 44.3 75 2.7 36.9
04:55 1020 30.12 849 25.07 7 44.6 73 2.5 36.4
05:00 1020 30.12 849 25.07 7.5 45.4 73 3 37.3
05:05 1020 30.12 849 25.07 7.1 44.8 73 2.7 36.9
05:10 1020 30.12 849 25.07 7.1 44.8 74 2.8 37
05:15 1020 30.12 849 25.07 6.7 44.1 76 2.7 36.9
05:20 1020 30.12 849 25.07 6.7 44 76 2.7 36.9
05:25 1020 30.12 849 25.07 6.7 44.1 75 2.5 36.6
05:30 1020 30.12 849 25.07 6.9 44.4 74 2.6 36.7
05:35 1020 30.12 849 25.07 6.8 44.3 75 2.6 36.7
05:40 1020 30.12 849 25.07 6.7 44 76 2.8 37
05:45 1020 30.12 849 25.07 6.3 43.3 78 2.7 36.8
05:50 1020 30.12 849 25.07 6.2 43.2 77 2.6 36.6
05:55 1020 30.12 849 25.07 6.4 43.6 76 2.5 36.6
06:00 1020 30.12 849 25.07 6.6 43.9 75 2.6 36.6
06:05 1020 30.12 849 25.07 6.7 44.1 75 2.5 36.5
06:10 1020 30.12 849 25.07 7 44.6 74 2.7 36.8
06:15 1020 30.12 849 25.07 7.2 44.9 73 2.6 36.7
06:20 1020 30.12 849 25.07 7.1 44.8 74 2.7 36.9
06:25 1020 30.12 849 25.07 7.2 44.9 73 2.6 36.8
06:30 1020 30.12 849 25.07 7.3 45.2 72 2.7 36.9
06:35 1020 30.12 849 25.07 7.5 45.5 72 2.8 37
06:40 1020 30.12 849 25.07 7.6 45.7 72 2.8 37.1
06:45 1020 30.12 849 25.07 7.8 46 71 2.9 37.3
06:50 1020 30.12 849 25.07 8 46.3 71 3.1 37.5
06:55 1020 30.12 849 25.07 8.2 46.7 70 3 37.4
07:00 1020 30.12 849 25.07 8.6 47.4 68 3.1 37.6
07:05 1020 30.12 849 25.07 9.2 48.5 66 3.1 37.7
07:10 1020 30.12 849 25.07 9.6 49.3 65 3.3 37.9
07:15 1020 30.12 849 25.07 9.8 49.6 64 3.3 38
07:20 1020 30.12 849 25.07 10 49.9 64 3.5 38.3
07:25 1020 30.12 849 25.07 9.9 49.9 66 4 39.2
07:30 1020 30.12 849 25.07 9.6 49.2 67 3.8 38.8
07:35 1020 30.12 849 25.07 9.8 49.6 66 3.8 38.9
07:40 1020 30.12 849 25.07 9.7 49.5 64 3.3 37.9
07:45 1020 30.12 849 25.07 10.1 50.2 62 3.2 37.8
07:50 1019 30.09 849 25.07 10.6 51 61 3.4 38.2
07:55 1019 30.09 849 25.07 11.1 52.1 59 3.5 38.4
08:00 1019 30.09 849 25.07 11.5 52.6 58 3.6 38.4
08:05 1019 30.09 848 25.04 12 53.6 59 4.3 39.8
08:10 1019 30.09 848 25.04 12.6 54.6 56 4.2 39.6
08:15 1019 30.09 848 25.04 12.4 54.2 57 4.2 39.5
08:20 1019 30.09 848 25.04 12.7 54.9 55 3.9 39.1
08:25 1019 30.09 848 25.04 12.8 55.1 55 4.1 39.4
08:30 1019 30.09 848 25.04 13.1 55.5 55 4.3 39.8
08:35 1019 30.09 848 25.04 13.4 56 53 4.1 39.4
08:40 1019 30.09 848 25.04 13.5 56.3 53 4.2 39.5
08:45 1019 30.09 848 25.04 13.8 56.9 53 4.5 40.1
08:50 1019 30.09 848 25.04 14.1 57.5 51 4.3 39.7
08:55 1019 30.09 848 25.04 14.7 58.4 49 4.3 39.7
09:00 1019 30.09 848 25.04 14.6 58.2 49 4 39.2
09:05 1019 30.09 848 25.04 14.9 58.8 49 4.3 39.7
09:10 1019 30.09 848 25.04 15.3 59.5 47 4.3 39.7
09:15 1019 30.09 848 25.04 15.7 60.3 46 4.2 39.5
09:20 1019 30.09 848 25.04 16 60.9 48 5 41.1
09:25 1019 30.09 848 25.04 16.4 61.4 48 5.4 41.8
09:30 1019 30.09 848 25.04 15.6 60.1 52 5.9 42.7
09:35 1019 30.09 848 25.04 16 60.8 48 5.1 41.1
09:40 1019 30.09 848 25.04 16.3 61.3 50 5.8 42.5
09:45 1019 30.09 848 25.04 15.7 60.2 50 5.4 41.7
09:50 1019 30.09 848 25.04 15.5 60 50 5.4 41.6
09:55 1019 30.09 848 25.04 15.9 60.6 51 5.8 42.5
10:00 1019 30.09 848 25.04 16.6 61.8 47 5.4 41.7
10:05 1019 30.09 848 25.04 16.7 62.1 48 5.8 42.5
10:10 1018 30.06 848 25.04 16.9 62.3 48 5.8 42.5
10:15 1018 30.06 848 25.04 17.1 62.8 47 5.9 42.6
10:20 1018 30.06 848 25.04 17 62.5 47 5.7 42.3
10:25 1018 30.06 847 25.01 16.8 62.3 49 6 42.8
10:30 1018 30.06 847 25.01 16.9 62.4 48 6 42.8
10:35 1018 30.06 847 25.01 17 62.5 47 5.7 42.3
10:40 1018 30.06 847 25.01 17.8 64 46 6.1 43.1
10:45 1018 30.06 847 25.01 18 64.5 45 6.1 42.9
10:50 1018 30.06 847 25.01 17 62.5 49 6.3 43.3
10:55 1018 30.06 847 25.01 17.1 62.7 49 6.3 43.4
11:00 1018 30.06 847 25.01 16.9 62.4 50 6.4 43.5
11:05 1018 30.06 847 25.01 17.7 63.8 49 6.9 44.3
11:10 1018 30.06 847 25.01 18.6 65.4 46 6.8 44.2
11:15 1018 30.06 847 25.01 19.5 67 44 7.1 44.7
11:20 1018 30.06 847 25.01 19.9 67.8 42 6.9 44.3
11:25 1018 30.06 847 25.01 20.1 68.1 42 7 44.6
11:30 1018 30.06 847 25.01 20.4 68.7 41 6.8 44.2
11:35 1017 30.03 847 25.01 20.6 69.1 40 6.7 44.1
11:40 1017 30.03 847 25.01 19.1 66.3 45 6.8 44.3
11:45 1017 30.03 847 25.01 19.5 67.2 41 5.9 42.6
11:50 1017 30.03 846 24.98 19.7 67.4 41 6.1 43
11:55 1017 30.03 846 24.98 20.4 68.7 41 6.8 44.2
12:00 1017 30.03 846 24.98 20.8 69.4 38 6.1 42.9
12:05 1017 30.03 846 24.98 20.9 69.6 36 5.4 41.7
12:10 1017 30.03 846 24.98 21.6 70.8 33 4.8 40.7
12:15 1017 30.03 846 24.98 21.5 70.7 34 5.3 41.6
12:20 1017 30.03 846 24.98 22.1 71.8 31 4.2 39.5
12:25 1017 30.03 846 24.98 22.2 72 35 6.3 43.4
12:30 1017 30.03 846 24.98 22.3 72.1 30 4.3 39.7
12:35 1017 30.03 846 24.98 22.6 72.7 30 4.4 39.9
12:40 1016 30 846 24.98 22.8 73 26 2.3 36.2
12:45 1016 30 846 24.98 23.4 74.1 24 1.9 35.4
12:50 1016 30 846 24.98 23.6 74.5 25 2.7 36.9
12:55 1016 30 845 24.95 23.8 74.8 26 3.1 37.6
13:00 1016 30 845 24.95 23.6 74.4 25 2.7 36.8
13:05 1016 30 845 24.95 23.1 73.5 25 2.2 36
13:10 1016 30 845 24.95 23.9 75 23 1.8 35.2
13:15 1016 30 845 24.95 23.7 74.6 23 1.6 34.9
13:20 1016 30 845 24.95 24.6 76.2 23 2.1 35.9
13:25 1016 30 845 24.95 25.1 77.1 22 2.3 36.1
13:30 1016 30 845 24.95 24.4 75.9 22 1.7 35.1
13:35 1016 30 845 24.95 23.7 74.7 25 2.6 36.8
13:40 1016 30 845 24.95 23.2 73.8 25 2 35.7
13:45 1016 30 845 24.95 23.2 73.8 25 2.2 35.9
13:50 1016 30 845 24.95 23 73.4 25 1.9 35.4
13:55 1016 30 845 24.95 23.3 74 24 1.9 35.4
14:00 1016 30 845 24.95 23.7 74.7 25 2.9 37.3
14:05 1015 29.97 845 24.95 23.9 75 27 3.8 38.8
14:10 1015 29.97 844 24.92 23.5 74.3 26 3.3 38
14:15 1015 29.97 844 24.92 23.3 73.9 25 2.6 36.7
14:20 1015 29.97 844 24.92 23.1 73.5 26 2.6 36.6
14:25 1015 29.97 844 24.92 23.7 74.7 28 4.4 39.9
14:30 1015 29.97 844 24.92 24 75.3 28 4.6 40.4
14:35 1015 29.97 844 24.92 23.2 73.7 28 4 39.2
14:40 1015 29.97 844 24.92 23.2 73.8 30 5.1 41.2
14:45 1015 29.97 844 24.92 23.5 74.2 28 4.2 39.5
14:50 1015 29.97 844 24.92 23.7 74.7 28 4.5 40.2
14:55 1015 29.97 844 24.92 23.3 74 28 4 39.1
15:00 1015 29.97 844 24.92 23.7 74.6 28 4.5 40
15:05 1015 29.97 844 24.92 24.1 75.3 28 4.7 40.4
15:10 1014 29.94 844 24.92 23.8 74.9 29 5 41
15:15 1014 29.94 844 24.92 24.2 75.5 26 3.9 39.1
15:20 1014 29.94 844 24.92 23.9 75 27 4.1 39.4
15:25 1014 29.94 843 24.89 23.9 75.1 25 2.8 37.1
15:30 1014 29.94 843 24.89 24.1 75.5 25 3.1 37.6
15:35 1014 29.94 843 24.89 23.9 75 28 4.3 39.7
15:40 1014 29.94 843 24.89 23.5 74.3 26 2.8 37.1
15:45 1014 29.94 843 24.89 23.8 74.8 26 3.2 37.8
15:50 1014 29.94 843 24.89 24.2 75.5 25 3.4 38
15:55 1014 29.94 843 24.89 24.7 76.4 24 2.8 37
16:00 1014 29.94 843 24.89 24.6 76.2 26 3.9 39.1
16:05 1014 29.94 843 24.89 24.3 75.7 19 -0.7 30.7
16:10 1014 29.94 843 24.89 24.6 76.3 18 -1.1 30
16:15 1014 29.94 843 24.89 25.2 77.3 19 0.2 32.4
16:20 1014 29.94 843 24.89 25 77 20 0.5 32.9
16:25 1014 29.94 843 24.89 24.8 76.6 19 0.2 32.3
16:30 1014 29.94 843 24.89 24.7 76.5 20 0.7 33.2
16:35 1014 29.94 843 24.89 24.8 76.6 23 2.2 35.9
16:40 1014 29.94 843 24.89 24.4 75.9 23 1.9 35.4
16:45 1014 29.94 843 24.89 24.2 75.6 20 0.2 32.4
16:50 1014 29.94 843 24.89 24.3 75.7 18 -1.2 29.9
16:55 1014 29.94 843 24.89 24.3 75.7 20 0.1 32.1
17:00 1014 29.94 843 24.89 24.3 75.8 21 1.1 34
17:05 1014 29.94 843 24.89 24.5 76.1 20 0.2 32.4
17:10 1013 29.91 843 24.89 24.8 76.6 27 4.8 40.7
17:15 1014 29.94 843 24.89 23.9 75 28 4.5 40.1
17:20 1014 29.94 843 24.89 23.7 74.7 27 3.8 38.8
17:25 1013 29.91 843 24.89 24.3 75.8 20 0.4 32.7
17:30 1013 29.91 843 24.89 24.3 75.8 20 -0.2 31.7
17:35 1013 29.91 843 24.89 24.1 75.4 19 -0.4 31.3
17:40 1013 29.91 842 24.86 23.9 75 22 1.1 34
17:45 1013 29.91 842 24.86 24.1 75.4 18 -1.8 28.8
17:50 1013 29.91 842 24.86 24.3 75.8 19 -0.6 30.8
17:55 1013 29.91 842 24.86 24.4 75.8 19 -0.8 30.6
18:00 1013 29.91 842 24.86 25 77 17 -1.1 30
18:05 1013 29.91 842 24.86 25 77 18 -0.7 30.8
18:10 1013 29.91 842 24.86 24.9 76.8 20 0.4 32.7
18:15 1013 29.91 842 24.86 24.8 76.6 20 0.7 33.2
18:20 1013 29.91 842 24.86 24.7 76.5 21 1.3 34.3
18:25 1013 29.91 842 24.86 24.5 76.1 20 0.2 32.3
18:30 1013 29.91 842 24.86 24 75.1 21 0.4 32.8
18:35 1013 29.91 842 24.86 23.6 74.5 22 0.8 33.5
18:40 1013 29.91 842 24.86 23.4 74.2 23 1.5 34.7
18:45 1012 29.88 842 24.86 23.6 74.5 22 1.1 34
18:50 1012 29.88 842 24.86 23.8 74.9 19 -0.6 30.9
18:55 1012 29.88 842 24.86 24.1 75.3 21 0.5 32.9
19:00 1012 29.88 842 24.86 23.9 75.1 21 0.7 33.2
19:05 1012 29.88 842 24.86 23.7 74.7 21 0.4 32.6
19:10 1012 29.88 842 24.86 23.7 74.6 25 2.4 36.4
19:15 1012 29.88 841 24.83 23.6 74.5 22 1.1 33.9
19:20 1012 29.88 841 24.83 23.4 74.1 23 1.4 34.6
19:25 1012 29.88 841 24.83 23.4 74.2 24 1.9 35.4
19:30 1012 29.88 841 24.83 23.4 74.1 22 0.8 33.4
19:35 1012 29.88 841 24.83 23.7 74.7 22 1.1 33.9
19:40 1012 29.88 841 24.83 23.4 74.2 25 2.4 36.4
19:45 1012 29.88 841 24.83 23 73.5 24 1.7 35.1
19:50 1012 29.88 841 24.83 23.1 73.5 26 2.5 36.6
19:55 1012 29.88 841 24.83 23.2 73.7 23 1.1 34.1
20:00 1012 29.88 841 24.83 23.1 73.5 23 1.3 34.3
20:05 1012 29.88 841 24.83 22.9 73.2 25 1.8 35.3
20:10 1012 29.88 841 24.83 22.9 73.3 24 1.6 34.9
20:15 1012 29.88 841 24.83 22.9 73.1 26 2.5 36.5
20:20 1012 29.88 841 24.83 22.8 73.1 26 2.5 36.5
20:25 1012 29.88 841 24.83 22.9 73.2 25 2 35.7
20:30 1012 29.88 841 24.83 22.9 73.2 26 2.4 36.2
20:35 1012 29.88 841 24.83 22.6 72.7 29 4.1 39.4
20:40 1012 29.88 842 24.86 22.4 72.3 28 3.1 37.5
20:45 1012 29.88 842 24.86 22.1 71.8 28 3 37.4
20:50 1012 29.88 842 24.86 21.8 71.3 28 2.9 37.2
20:55 1012 29.88 842 24.86 21.8 71.3 28 2.7 36.8
21:00 1013 29.91 842 24.86 21.8 71.3 29 3.2 37.7
21:05 1013 29.91 842 24.86 21.7 71.1 28 2.6 36.6
21:10 1013 29.91 842 24.86 21.7 71 32 4.3 39.8
21:15 1013 29.91 842 24.86 21.6 70.8 29 3.2 37.7
21:20 1013 29.91 842 24.86 21.6 70.9 30 3.4 38.2
21:25 1013 29.91 842 24.86 21.5 70.7 30 3.2 37.7
21:30 1013 29.91 842 24.86 21.3 70.3 30 3.3 38
21:35 1013 29.91 842 24.86 21.5 70.6 30 3.2 37.7
21:40 1013 29.91 842 24.86 21.2 70.1 32 3.9 39
21:45 1013 29.91 842 24.86 21.1 69.9 31 3.7 38.6
21:50 1013 29.91 842 24.86 20.9 69.6 31 3.2 37.7
21:55 1013 29.91 842 24.86 20.7 69.2 33 3.9 39.1
22:00 1013 29.91 842 24.86 20.7 69.3 31 3.2 37.8
22:05 1013 29.91 842 24.86 21.3 70.4 31 3.5 38.2
22:10 1013 29.91 842 24.86 21.7 71.1 30 3.6 38.4
22:15 1013 29.91 842 24.86 21.7 71 31 4 39.1
22:20 1013 29.91 842 24.86 21.3 70.4 31 3.5 38.3
22:25 1013 29.91 842 24.86 21.3 70.4 31 3.8 38.9
22:30 1013 29.91 842 24.86 21.5 70.6 30 3.4 38.2
22:35 1013 29.91 842 24.86 21.4 70.6 31 3.6 38.5
22:40 1013 29.91 842 24.86 21.3 70.3 31 3.8 38.9
22:45 1012 29.88 842 24.86 21.4 70.5 30 3.4 38.2
22:50 1012 29.88 842 24.86 21.4 70.5 31 3.8 38.9
22:55 1012 29.88 842 24.86 21.1 69.9 31 3.6 38.5
23:00 1012 29.88 842 24.86 20.9 69.6 31 3.3 38
23:05 1012 29.88 841 24.83 20.9 69.6 31 3.4 38.1
23:10 1012 29.88 842 24.86 20.9 69.6 32 3.6 38.5
23:15 1012 29.88 842 24.86 20.9 69.7 32 3.6 38.5
23:20 1012 29.88 842 24.86 20.8 69.4 32 3.8 38.8
23:25 1012 29.88 842 24.86 20.6 69.1 32 3.4 38.1
23:30 1012 29.88 842 24.86 20.7 69.3 32 3.8 38.8
23:35 1012 29.88 842 24.86 20.8 69.5 31 3.1 37.7
23:40 1012 29.88 842 24.86 21 69.9 30 3.1 37.5
23:45 1012 29.88 842 24.86 21.1 69.9 31 3.6 38.5
23:50 1013 29.91 842 24.86 20.8 69.5 31 3.3 37.9
23:55 1013 29.91 842 24.86 20.9 69.6 31 3.4 38.1
24:00 1013 29.91 842 24.86 20.7 69.2 32 3.6 38.4